Time;durP1;ratioP1;P1;durP2;ratioP2;P2;SDS_P1;SDS_P2;PMS_P1;PMS_P2;Temp;Humidity;BMP_temperature;BMP_pressure;BME280_temperature;BME280_humidity;BME280_pressure;Samples;Min_cycle;Max_cycle;Signal;HPM_P1;HPM_P2
2022/03/04 00:00:26;;;;;;;12.10;8.70;;;4.50;47.30;4.30;96355.00;;;;5072415;28;20675;-85
2022/03/04 00:02:53;;;;;;;12.97;9.13;;;4.50;47.30;4.30;96351.00;;;;5072922;28;20220;-84
2022/03/04 00:05:20;;;;;;;12.07;7.73;;;4.50;47.30;4.30;96355.00;;;;5072711;28;20200;-84
2022/03/04 00:07:47;;;;;;;12.40;8.27;;;4.50;47.20;4.30;96354.00;;;;5069318;23;20504;-87
2022/03/04 00:10:14;;;;;;;14.67;8.60;;;4.50;47.10;4.30;96350.00;;;;5032885;28;20225;-88
2022/03/04 00:12:41;;;;;;;12.77;8.23;;;4.50;47.10;4.30;96362.00;;;;5043646;28;20718;-86
2022/03/04 00:15:10;;;;;;;13.10;8.27;;;4.50;47.30;4.30;96349.00;;;;5044553;28;20200;-88
2022/03/04 00:17:38;;;;;;;14.43;8.10;;;4.50;47.40;4.30;96359.00;;;;5046250;28;20442;-87
2022/03/04 00:20:07;;;;;;;10.97;8.27;;;4.50;47.40;4.30;96361.00;;;;5044195;28;20223;-87
2022/03/04 00:22:36;;;;;;;12.67;8.10;;;4.50;47.40;4.30;96359.00;;;;5041397;28;20356;-87
2022/03/04 00:25:07;;;;;;;11.20;8.17;;;4.50;47.40;4.30;96365.00;;;;5045030;28;20439;-87
2022/03/04 00:27:35;;;;;;;14.60;8.73;;;4.50;47.50;4.30;96365.00;;;;5044034;28;20250;-86
2022/03/04 00:30:02;;;;;;;13.03;7.70;;;4.50;47.50;4.30;96367.00;;;;5042455;28;20466;-87
2022/03/04 00:32:35;;;;;;;13.77;8.57;;;4.50;47.60;4.30;96367.00;;;;5039924;28;20188;-88
2022/03/04 00:35:05;;;;;;;11.77;8.10;;;4.50;47.70;4.30;96372.00;;;;5051614;28;20287;-87
2022/03/04 00:37:32;;;;;;;14.03;8.87;;;4.50;47.70;4.30;96379.00;;;;5050581;28;20451;-87
2022/03/04 00:39:59;;;;;;;14.30;8.63;;;4.50;47.80;4.20;96371.00;;;;5052942;28;20235;-87
2022/03/04 00:42:27;;;;;;;12.13;8.03;;;4.40;47.80;4.20;96370.00;;;;5049372;28;20440;-87
2022/03/04 00:44:55;;;;;;;20.57;9.00;;;4.50;47.80;4.20;96377.00;;;;5049912;28;20218;-88
2022/03/04 00:47:22;;;;;;;13.80;9.00;;;4.40;47.80;4.20;96372.00;;;;5060338;28;20187;-84
2022/03/04 00:49:49;;;;;;;12.97;8.30;;;4.40;47.90;4.20;96376.00;;;;5065536;28;20311;-88
2022/03/04 00:52:18;;;;;;;12.53;8.47;;;4.40;48.00;4.20;96369.00;;;;5047720;28;20190;-87
2022/03/04 00:54:45;;;;;;;12.40;8.57;;;4.40;48.10;4.20;96376.00;;;;5040550;28;20207;-88
2022/03/04 00:57:12;;;;;;;13.77;8.33;;;4.40;48.10;4.20;96358.00;;;;5043797;28;20191;-87
2022/03/04 00:59:39;;;;;;;10.43;7.23;;;4.40;48.10;4.20;96366.00;;;;5048062;28;20467;-88
2022/03/04 01:02:06;;;;;;;12.03;7.77;;;4.30;48.20;4.20;96358.00;;;;5054827;28;20443;-87
2022/03/04 01:04:34;;;;;;;12.07;8.23;;;4.30;48.20;4.10;96369.00;;;;5051418;28;20225;-88
2022/03/04 01:07:01;;;;;;;11.57;7.63;;;4.30;48.20;4.10;96369.00;;;;5049208;28;20246;-87
2022/03/04 01:09:29;;;;;;;12.70;7.97;;;4.30;48.30;4.10;96365.00;;;;5035782;28;20468;-88
2022/03/04 01:11:59;;;;;;;12.07;7.80;;;4.20;48.30;4.10;96362.00;;;;5042947;28;20439;-86
2022/03/04 01:14:26;;;;;;;12.47;8.20;;;4.20;48.30;4.10;96363.00;;;;5048882;28;20445;-88
2022/03/04 01:16:53;;;;;;;12.30;7.87;;;4.20;48.80;4.00;96358.00;;;;5037780;28;20355;-87
2022/03/04 01:19:20;;;;;;;12.43;8.37;;;4.20;48.40;4.00;96361.00;;;;5055778;28;20470;-88
2022/03/04 01:21:47;;;;;;;12.87;8.23;;;4.20;48.50;4.00;96353.00;;;;5055780;28;20478;-88
2022/03/04 01:24:14;;;;;;;12.33;8.67;;;4.20;48.70;4.00;96349.00;;;;5055384;28;20976;-86
2022/03/04 01:26:43;;;;;;;12.60;8.57;;;4.20;48.80;3.90;96348.00;;;;5050497;28;20455;-87
2022/03/04 01:29:10;;;;;;;12.93;8.00;;;4.10;48.90;3.90;96339.00;;;;5045760;28;21022;-87
2022/03/04 01:31:37;;;;;;;10.57;7.77;;;4.10;49.00;3.90;96343.00;;;;5048998;28;20941;-87
2022/03/04 01:34:04;;;;;;;11.67;8.43;;;4.10;49.00;3.90;96341.00;;;;5054989;28;20550;-88
2022/03/04 01:36:33;;;;;;;11.50;8.20;;;4.10;49.10;3.90;96332.00;;;;5043378;28;20867;-87
2022/03/04 01:39:01;;;;;;;13.33;7.40;;;4.10;49.10;3.80;96329.00;;;;5054747;28;20489;-88
2022/03/04 01:41:28;;;;;;;13.40;8.33;;;4.00;49.00;3.80;96335.00;;;;5054372;28;20496;-88
2022/03/04 01:43:56;;;;;;;12.77;8.57;;;4.00;49.10;3.80;96333.00;;;;5053943;28;20478;-87
2022/03/04 01:46:30;;;;;;;15.07;8.27;;;4.00;49.10;3.80;96336.00;;;;5055216;28;20442;-88
2022/03/04 01:48:58;;;;;;;12.90;8.33;;;4.00;49.20;3.70;96332.00;;;;5054652;28;20465;-87
2022/03/04 01:51:25;;;;;;;12.23;8.27;;;4.00;49.20;3.70;96334.00;;;;5054773;28;20440;-88
2022/03/04 01:53:53;;;;;;;11.20;7.73;;;4.00;49.30;3.70;96312.00;;;;5053725;28;20453;-87
2022/03/04 01:56:20;;;;;;;11.43;8.40;;;4.00;49.30;3.70;96326.00;;;;5054568;28;20441;-88
2022/03/04 01:58:47;;;;;;;12.97;8.87;;;3.90;49.30;3.60;96309.00;;;;5053855;28;20526;-89
2022/03/04 02:01:15;;;;;;;11.30;8.10;;;3.90;49.30;3.60;96315.00;;;;5054093;28;20831;-88
2022/03/04 02:03:43;;;;;;;13.90;8.67;;;3.90;49.30;3.60;96319.00;;;;5053463;28;20482;-89
2022/03/04 02:06:10;;;;;;;11.30;8.33;;;3.90;49.30;3.60;96305.00;;;;5054599;28;21013;-88
2022/03/04 02:08:37;;;;;;;12.37;8.27;;;3.90;49.30;3.60;96306.00;;;;5053531;28;20864;-87
2022/03/04 02:11:04;;;;;;;12.20;8.37;;;3.90;49.30;3.60;96303.00;;;;5051481;28;20475;-88
2022/03/04 02:13:32;;;;;;;14.87;9.30;;;3.90;49.40;3.50;96310.00;;;;5050655;28;20452;-89
2022/03/04 02:15:59;;;;;;;10.27;7.60;;;3.80;49.40;3.50;96314.00;;;;5052484;28;20967;-88
2022/03/04 02:18:28;;;;;;;12.23;7.90;;;3.80;49.40;3.50;96311.00;;;;5051916;28;20439;-86
2022/03/04 02:20:57;;;;;;;14.40;8.37;;;3.80;49.40;3.50;96303.00;;;;5054413;28;20435;-88
2022/03/04 02:23:26;;;;;;;11.37;7.90;;;3.80;49.40;3.50;96304.00;;;;5054200;28;20436;-87
2022/03/04 02:25:53;;;;;;;12.10;8.57;;;3.80;49.40;3.50;96305.00;;;;5053653;28;20436;-89
2022/03/04 02:28:23;;;;;;;11.40;7.97;;;3.80;49.40;3.50;96302.00;;;;5052343;28;20439;-87
2022/03/04 02:30:50;;;;;;;13.17;8.70;;;3.80;49.50;3.40;96286.00;;;;5053930;28;20459;-86
2022/03/04 02:33:17;;;;;;;12.43;7.97;;;3.70;49.50;3.40;96287.00;;;;5054531;28;20972;-89
2022/03/04 02:35:46;;;;;;;11.47;7.93;;;3.70;49.60;3.40;96281.00;;;;5054882;28;20442;-87
2022/03/04 02:38:13;;;;;;;12.60;8.93;;;3.70;49.60;3.40;96298.00;;;;5060805;28;20442;-87
2022/03/04 02:40:41;;;;;;;11.80;8.43;;;3.70;49.60;3.40;96298.00;;;;5067273;28;20510;-88
2022/03/04 02:43:08;;;;;;;14.27;8.03;;;3.70;49.70;3.40;96295.00;;;;5050666;28;20456;-88
2022/03/04 02:45:35;;;;;;;12.47;8.57;;;3.70;49.80;3.30;96286.00;;;;5053855;28;21004;-87
2022/03/04 02:48:02;;;;;;;13.23;9.33;;;3.60;49.60;3.30;96286.00;;;;5054496;28;20550;-88
2022/03/04 02:50:33;;;;;;;12.80;8.80;;;4.00;49.80;3.30;96294.00;;;;5049947;28;21000;-87
2022/03/04 02:53:00;;;;;;;13.77;8.93;;;3.50;49.60;3.30;96286.00;;;;5047123;28;20428;-88
2022/03/04 02:55:27;;;;;;;16.30;8.70;;;3.60;49.70;3.30;96290.00;;;;5049866;28;20451;-86
2022/03/04 02:57:55;;;;;;;12.50;7.93;;;3.60;49.70;3.30;96288.00;;;;5051409;28;20530;-88
2022/03/04 03:00:22;;;;;;;10.80;8.13;;;3.60;49.80;3.30;96289.00;;;;5050244;28;20458;-89
2022/03/04 03:02:49;;;;;;;11.30;8.37;;;3.50;49.80;3.30;96295.00;;;;5052229;28;20820;-87
2022/03/04 03:05:16;;;;;;;12.67;8.30;;;3.50;49.90;3.30;96288.00;;;;5053178;28;20567;-88
2022/03/04 03:07:43;;;;;;;12.17;8.40;;;3.50;50.00;3.20;96285.00;;;;5051501;28;20542;-87
2022/03/04 03:10:12;;;;;;;11.57;8.07;;;3.50;50.00;3.20;96282.00;;;;5071401;22;20571;-84
2022/03/04 03:12:40;;;;;;;12.20;8.23;;;3.50;49.90;3.20;96285.00;;;;5027374;28;20468;-84
2022/03/04 03:15:11;;;;;;;12.93;7.80;;;3.50;50.00;3.20;96288.00;;;;5036841;28;20443;-84
2022/03/04 03:17:39;;;;;;;11.50;7.97;;;3.50;50.10;3.20;96286.00;;;;5037283;28;21010;-83
2022/03/04 03:20:08;;;;;;;11.17;8.20;;;3.40;50.00;3.20;96282.00;;;;5035455;28;20503;-84
2022/03/04 03:22:36;;;;;;;12.50;8.50;;;3.40;50.10;3.10;96284.00;;;;5034562;28;20436;-81
2022/03/04 03:25:05;;;;;;;13.00;8.13;;;3.40;50.00;3.10;96292.00;;;;5029583;28;20904;-81
2022/03/04 03:27:32;;;;;;;11.33;7.87;;;3.30;50.10;3.10;96286.00;;;;5035597;28;20546;-82
2022/03/04 03:30:00;;;;;;;12.40;8.37;;;3.30;50.20;3.10;96293.00;;;;5036441;28;20465;-81
2022/03/04 03:32:28;;;;;;;12.70;8.33;;;3.30;50.40;3.00;96294.00;;;;5035572;28;20433;-82
2022/03/04 03:34:56;;;;;;;14.23;8.87;;;3.30;50.50;3.00;96299.00;;;;5034959;28;20967;-81
2022/03/04 03:37:23;;;;;;;17.10;9.00;;;3.30;50.50;3.00;96293.00;;;;5035850;28;20440;-81
2022/03/04 03:39:51;;;;;;;12.40;8.87;;;3.30;50.60;3.00;96300.00;;;;5037182;28;20539;-82
2022/03/04 03:42:18;;;;;;;11.90;8.87;;;3.20;50.60;2.90;96303.00;;;;5035918;28;20475;-82
2022/03/04 03:44:46;;;;;;;11.37;7.90;;;3.20;50.60;2.90;96310.00;;;;5035034;28;20519;-81
2022/03/04 03:47:13;;;;;;;11.30;8.27;;;3.20;50.60;2.90;96308.00;;;;5036056;28;20464;-81
2022/03/04 03:49:42;;;;;;;12.97;8.40;;;3.20;50.60;2.90;96315.00;;;;5029541;28;20441;-82
2022/03/04 03:52:10;;;;;;;13.10;8.43;;;3.20;50.70;2.90;96318.00;;;;5022483;28;20513;-82
2022/03/04 03:54:37;;;;;;;12.53;8.53;;;3.10;50.60;2.80;96313.00;;;;5030874;28;20493;-81
2022/03/04 03:57:05;;;;;;;13.07;8.33;;;3.10;50.70;2.80;96316.00;;;;5026705;28;20522;-82
2022/03/04 03:59:32;;;;;;;13.03;8.73;;;3.10;50.90;2.80;96314.00;;;;5035681;28;20454;-82
2022/03/04 04:01:59;;;;;;;14.10;8.17;;;3.10;51.00;2.80;96318.00;;;;5035929;28;20859;-82
2022/03/04 04:04:27;;;;;;;11.33;8.40;;;3.10;51.20;2.70;96323.00;;;;5035476;28;20534;-82
2022/03/04 04:06:56;;;;;;;16.93;9.20;;;3.00;51.30;2.70;96323.00;;;;5034073;28;20436;-81
2022/03/04 04:09:23;;;;;;;12.97;8.90;;;3.00;51.40;2.70;96333.00;;;;5034667;28;20498;-82
2022/03/04 04:11:51;;;;;;;12.73;8.10;;;3.00;51.40;2.70;96323.00;;;;5033935;28;20498;-81
2022/03/04 04:14:18;;;;;;;11.43;8.00;;;3.00;51.40;2.70;96325.00;;;;5034948;28;20468;-81
2022/03/04 04:16:45;;;;;;;12.93;8.00;;;3.00;51.40;2.60;96327.00;;;;5035845;28;20999;-81
2022/03/04 04:19:13;;;;;;;14.37;8.30;;;2.90;51.30;2.60;96338.00;;;;5035544;28;20436;-81
2022/03/04 04:21:40;;;;;;;13.00;8.27;;;2.90;51.30;2.60;96338.00;;;;5032467;28;20470;-81
2022/03/04 04:24:09;;;;;;;15.33;8.43;;;2.90;51.90;2.60;96333.00;;;;5033926;28;20547;-81
2022/03/04 04:26:36;;;;;;;10.83;8.13;;;2.80;51.40;2.60;96335.00;;;;5034698;28;20494;-81
2022/03/04 04:29:04;;;;;;;12.23;8.23;;;2.80;51.40;2.50;96338.00;;;;5035968;28;20443;-81
2022/03/04 04:31:32;;;;;;;12.63;8.77;;;2.80;51.60;2.50;96334.00;;;;5033909;28;20605;-81
2022/03/04 04:34:01;;;;;;;12.40;8.33;;;2.80;51.60;2.50;96347.00;;;;5034889;28;20468;-81
2022/03/04 04:36:29;;;;;;;14.83;8.50;;;2.80;51.60;2.50;96337.00;;;;5019048;28;20871;-81
2022/03/04 04:38:56;;;;;;;11.67;7.83;;;2.70;51.60;2.40;96335.00;;;;5035291;28;20506;-81
2022/03/04 04:41:25;;;;;;;12.50;8.07;;;2.70;51.70;2.40;96343.00;;;;5035607;28;20518;-81
2022/03/04 04:43:52;;;;;;;11.83;7.83;;;2.70;51.70;2.40;96340.00;;;;5035173;28;20488;-81
2022/03/04 04:46:20;;;;;;;11.40;8.27;;;2.70;51.90;2.40;96337.00;;;;5035532;28;20540;-82
2022/03/04 04:48:47;;;;;;;12.83;9.07;;;2.70;51.90;2.30;96335.00;;;;5036273;28;20436;-82
2022/03/04 04:51:14;;;;;;;12.20;8.33;;;2.60;51.90;2.30;96331.00;;;;5034189;28;20452;-82
2022/03/04 04:53:42;;;;;;;14.87;8.60;;;2.60;51.90;2.30;96336.00;;;;5034580;28;20491;-82
2022/03/04 04:56:09;;;;;;;18.13;9.40;;;2.60;51.90;2.30;96339.00;;;;5017425;28;20527;-82
2022/03/04 04:58:38;;;;;;;13.77;9.00;;;2.60;51.90;2.30;96338.00;;;;5032341;28;20845;-82
2022/03/04 05:01:05;;;;;;;12.23;8.17;;;2.60;52.00;2.30;96335.00;;;;5031634;28;20543;-81
2022/03/04 05:03:33;;;;;;;13.60;8.93;;;2.60;52.00;2.20;96346.00;;;;5033401;28;20471;-81
2022/03/04 05:06:00;;;;;;;13.00;8.67;;;2.50;51.90;2.20;96344.00;;;;5035675;28;20534;-82
2022/03/04 05:08:29;;;;;;;12.90;8.47;;;2.50;51.90;2.20;96355.00;;;;5034936;28;20494;-81
2022/03/04 05:10:57;;;;;;;14.20;8.63;;;2.50;51.90;2.20;96346.00;;;;5034796;28;20472;-81
2022/03/04 05:13:24;;;;;;;15.17;9.17;;;2.50;51.90;2.10;96361.00;;;;5034866;28;20460;-81
2022/03/04 05:15:53;;;;;;;12.17;8.57;;;2.40;51.90;2.10;96357.00;;;;5035195;28;20440;-82
2022/03/04 05:18:20;;;;;;;13.43;9.03;;;2.40;52.00;2.10;96359.00;;;;5029832;28;20475;-82
2022/03/04 05:20:48;;;;;;;14.80;9.03;;;2.40;52.10;2.10;96356.00;;;;5030262;28;20472;-82
2022/03/04 05:23:58;;;;;;;13.53;8.80;;;2.40;52.20;2.10;96359.00;;;;5029758;28;20483;-81
2022/03/04 05:26:03;;;;;;;11.53;8.07;;;2.40;52.30;2.10;96367.00;;;;5033174;28;20478;-82
2022/03/04 05:28:31;;;;;;;11.13;7.90;;;2.40;52.30;2.10;96367.00;;;;5034549;28;20470;-82
2022/03/04 05:30:59;;;;;;;14.43;8.20;;;2.40;52.20;2.10;96362.00;;;;5035830;28;20486;-81
2022/03/04 05:33:27;;;;;;;14.03;8.77;;;2.40;52.30;2.10;96357.00;;;;5034627;28;20448;-82
2022/03/04 05:35:54;;;;;;;11.00;8.67;;;2.40;52.30;2.10;96361.00;;;;5035435;28;20454;-82
2022/03/04 05:38:21;;;;;;;10.80;7.87;;;2.40;52.30;2.10;96370.00;;;;5034893;28;21299;-85
2022/03/04 05:40:48;;;;;;;13.30;8.63;;;2.50;52.40;2.10;96369.00;;;;5031426;28;20463;-86
2022/03/04 05:43:16;;;;;;;12.73;8.70;;;2.40;52.30;2.10;96381.00;;;;5032158;28;20460;-85
2022/03/04 05:45:43;;;;;;;13.87;9.03;;;2.30;52.30;2.20;96379.00;;;;5031921;28;20475;-85
2022/03/04 05:48:12;;;;;;;13.57;8.47;;;2.50;52.40;2.20;96379.00;;;;5035327;28;20432;-85
2022/03/04 05:50:39;;;;;;;12.47;8.47;;;2.40;52.30;2.20;96378.00;;;;5020432;28;20460;-85
2022/03/04 05:53:06;;;;;;;13.93;9.23;;;2.40;52.30;2.20;96384.00;;;;5031607;28;20534;-85
2022/03/04 05:55:34;;;;;;;14.63;8.50;;;2.40;52.90;2.30;96381.00;;;;5035239;28;20451;-86
2022/03/04 05:58:01;;;;;;;11.60;7.97;;;2.40;52.40;2.30;96386.00;;;;5035443;28;21007;-85
2022/03/04 06:00:29;;;;;;;13.43;8.70;;;2.40;52.40;2.30;96386.00;;;;5035790;28;20450;-86
2022/03/04 06:02:57;;;;;;;12.73;8.63;;;2.40;52.50;2.40;96386.00;;;;5035519;28;20513;-84
2022/03/04 06:05:26;;;;;;;12.77;8.33;;;2.40;52.40;2.40;96389.00;;;;5034982;28;21200;-87
2022/03/04 06:07:53;;;;;;;13.20;8.60;;;2.40;52.30;2.40;96395.00;;;;5021309;28;20433;-85
2022/03/04 06:10:20;;;;;;;13.93;9.10;;;2.50;52.40;2.40;96389.00;;;;5018550;28;20448;-85
2022/03/04 06:12:48;;;;;;;13.83;9.07;;;2.50;52.40;2.40;96408.00;;;;5035145;28;20441;-84
2022/03/04 06:15:15;;;;;;;13.50;8.83;;;2.50;52.40;2.40;96401.00;;;;5035042;28;20854;-85
2022/03/04 06:17:47;;;;;;;13.63;9.40;;;2.50;52.40;2.50;96407.00;;;;5033992;28;20448;-85
2022/03/04 06:20:14;;;;;;;12.53;8.80;;;2.70;52.50;2.50;96408.00;;;;5034320;28;20448;-85
2022/03/04 06:22:44;;;;;;;12.43;8.20;;;2.60;52.50;2.50;96414.00;;;;5034284;28;20444;-86
2022/03/04 06:25:12;;;;;;;13.43;8.80;;;2.60;52.40;2.50;96415.00;;;;5034151;28;20491;-86
2022/03/04 06:27:51;;;;;;;14.77;9.60;;;2.60;52.50;2.50;96417.00;;;;5033561;28;20448;-85
2022/03/04 06:30:18;;;;;;;12.33;8.60;;;2.60;52.40;2.50;96415.00;;;;5034215;28;20478;-86
2022/03/04 06:32:46;;;;;;;13.53;8.93;;;2.60;52.40;2.60;96426.00;;;;5033913;28;21018;-85
2022/03/04 06:35:13;;;;;;;11.53;8.87;;;2.60;52.40;2.60;96428.00;;;;5025444;28;20454;-86
2022/03/04 06:37:40;;;;;;;14.33;9.37;;;2.60;52.50;2.60;96424.00;;;;5034157;28;20488;-87
2022/03/04 06:40:11;;;;;;;15.17;9.40;;;2.70;52.60;2.60;96429.00;;;;5034083;28;20459;-86
2022/03/04 06:42:39;;;;;;;12.03;8.47;;;2.70;52.70;2.60;96438.00;;;;5033797;28;20496;-89
2022/03/04 06:45:08;;;;;;;13.97;9.20;;;2.70;52.60;2.60;96446.00;;;;5034408;28;20480;-88
2022/03/04 06:47:35;;;;;;;13.07;8.87;;;2.70;52.60;2.70;96441.00;;;;5033061;28;20550;-88
2022/03/04 06:50:03;;;;;;;15.50;9.50;;;2.70;52.60;2.70;96444.00;;;;5033974;28;20475;-88
2022/03/04 06:52:30;;;;;;;14.90;9.63;;;2.70;52.60;2.70;96454.00;;;;5033435;28;20470;-89
2022/03/04 06:54:58;;;;;;;15.23;9.93;;;2.70;52.50;2.70;96453.00;;;;5027257;28;20456;-87
2022/03/04 06:57:26;;;;;;;15.90;9.60;;;2.80;52.60;2.70;96443.00;;;;5018683;28;20857;-86
2022/03/04 06:59:54;;;;;;;13.77;8.77;;;2.80;52.60;2.70;96453.00;;;;5022546;28;20546;-86
2022/03/04 07:02:21;;;;;;;14.73;9.43;;;2.80;52.70;2.80;96465.00;;;;5044018;28;20447;-88
2022/03/04 07:04:49;;;;;;;12.83;9.23;;;2.80;52.70;2.80;96463.00;;;;5032161;28;20464;-87
2022/03/04 07:07:16;;;;;;;16.03;9.60;;;2.80;52.70;2.80;96464.00;;;;5033294;28;20467;-87
2022/03/04 07:09:44;;;;;;;11.70;8.93;;;2.80;52.80;2.90;96468.00;;;;5033357;28;20560;-87
2022/03/04 07:12:12;;;;;;;16.17;9.40;;;2.90;53.10;2.90;96468.00;;;;5033640;28;20464;-88
2022/03/04 07:14:40;;;;;;;12.93;8.60;;;2.90;52.90;2.90;96468.00;;;;5025664;28;20548;-88
2022/03/04 07:17:08;;;;;;;12.87;9.03;;;2.90;52.90;3.00;96461.00;;;;5033188;28;21002;-86
2022/03/04 07:19:35;;;;;;;14.33;9.07;;;3.00;53.00;3.00;96465.00;;;;5032136;28;20444;-86
2022/03/04 07:22:02;;;;;;;14.30;9.20;;;3.00;53.00;3.10;96474.00;;;;5032668;28;20451;-86
2022/03/04 07:24:30;;;;;;;13.53;8.73;;;3.10;53.10;3.10;96484.00;;;;5030291;28;20828;-85
2022/03/04 07:26:58;;;;;;;14.53;9.30;;;3.10;53.10;3.20;96485.00;;;;5031773;28;20468;-85
2022/03/04 07:29:26;;;;;;;15.50;9.63;;;3.20;53.20;3.20;96477.00;;;;5033078;28;20468;-85
2022/03/04 07:31:55;;;;;;;13.17;9.07;;;3.20;53.20;3.30;96490.00;;;;5032928;28;20478;-87
2022/03/04 07:34:22;;;;;;;13.47;9.27;;;3.30;53.20;3.30;96489.00;;;;5031882;28;20477;-86
2022/03/04 07:36:50;;;;;;;14.53;10.10;;;3.30;53.20;3.40;96490.00;;;;5031349;28;20917;-86
2022/03/04 07:39:18;;;;;;;13.40;9.27;;;3.30;53.20;3.40;96491.00;;;;5032391;28;20444;-86
2022/03/04 07:41:47;;;;;;;15.53;10.07;;;3.40;53.30;3.50;96499.00;;;;5033963;28;20440;-86
2022/03/04 07:44:14;;;;;;;14.90;9.87;;;3.40;53.20;3.50;96497.00;;;;5045579;28;20504;-85
2022/03/04 07:46:41;;;;;;;14.07;9.63;;;3.50;53.10;3.60;96494.00;;;;5030521;28;20494;-85
2022/03/04 07:49:10;;;;;;;16.87;10.13;;;3.60;53.20;3.60;96499.00;;;;5012931;28;20440;-85
2022/03/04 07:51:38;;;;;;;14.30;9.13;;;3.60;53.30;3.70;96512.00;;;;5032304;28;20808;-84
2022/03/04 07:54:05;;;;;;;12.73;8.80;;;3.70;53.20;3.80;96509.00;;;;5031410;28;20481;-83
2022/03/04 07:56:33;;;;;;;15.10;9.87;;;3.70;53.20;3.90;96506.00;;;;5032994;28;20448;-83
2022/03/04 07:59:03;;;;;;;16.30;10.07;;;3.80;53.20;4.00;96514.00;;;;5032457;28;20507;-85
2022/03/04 08:01:30;;;;;;;15.93;10.07;;;3.90;53.20;4.10;96506.00;;;;5041412;28;20526;-84
2022/03/04 08:03:58;;;;;;;15.20;10.30;;;4.00;53.20;4.30;96516.00;;;;5041138;28;20221;-84
2022/03/04 08:06:27;;;;;;;14.00;10.00;;;4.10;53.30;4.40;96513.00;;;;5032593;28;20709;-86
2022/03/04 08:08:54;;;;;;;14.60;9.80;;;4.20;53.50;4.60;96517.00;;;;5032337;28;20202;-84
2022/03/04 08:11:21;;;;;;;13.83;10.57;;;4.40;53.40;4.80;96518.00;;;;5031329;28;20221;-85
2022/03/04 08:13:49;;;;;;;14.13;9.97;;;4.50;53.40;5.00;96522.00;;;;5030171;28;20741;-85
2022/03/04 08:16:16;;;;;;;15.03;10.40;;;4.70;53.50;5.20;96534.00;;;;5031988;28;20205;-86
2022/03/04 08:18:43;;;;;;;15.57;10.50;;;4.80;53.50;5.40;96536.00;;;;5033131;28;20623;-85
2022/03/04 08:21:11;;;;;;;16.30;10.93;;;5.00;53.40;5.60;96537.00;;;;5032271;28;20247;-84
2022/03/04 08:23:40;;;;;;;13.87;9.67;;;5.20;53.30;5.80;96530.00;;;;5031652;28;20709;-84
2022/03/04 08:26:07;;;;;;;15.37;10.03;;;5.40;53.20;6.00;96539.00;;;;5031940;28;20712;-85
2022/03/04 08:28:35;;;;;;;17.30;11.30;;;5.60;53.20;6.20;96545.00;;;;5032363;28;20335;-85
2022/03/04 08:31:03;;;;;;;17.83;11.67;;;5.80;53.10;6.40;96545.00;;;;5032276;28;20856;-85
2022/03/04 08:33:30;;;;;;;19.57;11.73;;;6.00;53.00;6.70;96546.00;;;;5031969;28;20225;-86
2022/03/04 08:35:58;;;;;;;15.67;11.13;;;6.10;52.80;6.90;96550.00;;;;5031760;28;20201;-86
2022/03/04 08:38:25;;;;;;;18.13;11.33;;;6.40;52.80;7.10;96548.00;;;;5031760;28;20259;-87
2022/03/04 08:40:54;;;;;;;15.43;10.10;;;6.50;52.60;7.30;96549.00;;;;5030732;28;20203;-86
2022/03/04 08:43:21;;;;;;;15.80;10.40;;;6.70;52.50;7.50;96551.00;;;;5031904;28;20252;-87
2022/03/04 08:45:49;;;;;;;16.07;10.43;;;6.90;52.40;7.70;96559.00;;;;5031428;28;20217;-87
2022/03/04 08:48:16;;;;;;;15.27;11.10;;;7.10;52.30;8.00;96572.00;;;;5031480;28;20201;-87
2022/03/04 08:50:44;;;;;;;15.03;10.47;;;7.30;52.20;8.20;96565.00;;;;5051639;28;20232;-88
2022/03/04 08:53:11;;;;;;;16.10;10.53;;;7.50;52.10;8.50;96557.00;;;;5043656;28;20290;-89
2022/03/04 08:55:41;;;;;;;19.37;11.53;;;7.70;52.00;8.70;96562.00;;;;5030845;28;20205;-88
2022/03/04 08:58:10;;;;;;;16.43;11.37;;;7.90;51.70;8.90;96565.00;;;;5031118;28;20231;-88
2022/03/04 09:00:38;;;;;;;17.23;11.67;;;8.10;51.60;9.20;96559.00;;;;5031104;28;20251;-88
2022/03/04 09:03:05;;;;;;;17.27;10.67;;;8.30;51.50;9.50;96559.00;;;;5011640;28;20694;-88
2022/03/04 09:05:33;;;;;;;13.20;9.70;;;8.60;51.50;9.80;96571.00;;;;5047270;28;20204;-88
2022/03/04 09:08:00;;;;;;;15.40;10.47;;;8.80;51.40;10.10;96574.00;;;;5051377;28;20207;-88
2022/03/04 09:13:06;;;;;;;14.77;10.27;;;9.40;51.10;10.70;96581.00;;;;4418739;22;20220;-88
2022/03/04 09:15:35;;;;;;;18.60;11.03;;;9.80;51.10;11.00;96588.00;;;;5039232;28;20196;-88
2022/03/04 09:18:02;;;;;;;15.07;10.13;;;10.30;50.70;11.30;96581.00;;;;5043742;28;20196;-88
2022/03/04 09:20:29;;;;;;;14.20;9.60;;;10.70;50.40;11.60;96583.00;;;;5045161;28;20215;-87
2022/03/04 09:22:57;;;;;;;15.00;9.93;;;11.20;50.10;11.80;96591.00;;;;5035371;28;20193;-88
2022/03/04 09:25:26;;;;;;;14.03;10.03;;;11.90;49.90;12.10;96585.00;;;;5034643;28;20205;-88
2022/03/04 09:27:54;;;;;;;13.83;10.10;;;12.30;49.10;12.40;96591.00;;;;5042537;28;20211;-85
2022/03/04 09:30:21;;;;;;;14.93;10.20;;;12.80;48.40;12.70;96590.00;;;;5031624;28;20193;-84
2022/03/04 09:32:50;;;;;;;13.73;9.30;;;13.30;47.90;12.90;96582.00;;;;5040492;28;20280;-85
2022/03/04 09:35:18;;;;;;;14.23;10.73;;;13.70;47.00;13.10;96589.00;;;;5031231;28;20198;-86
2022/03/04 09:37:45;;;;;;;16.03;11.20;;;14.10;45.30;13.30;96596.00;;;;5033581;28;20201;-86
2022/03/04 09:40:13;;;;;;;15.87;9.73;;;14.40;44.50;13.50;96591.00;;;;5039532;28;20208;-86
2022/03/04 09:42:41;;;;;;;11.37;9.40;;;14.70;44.10;13.70;96595.00;;;;5041415;28;20198;-85
2022/03/04 09:45:10;;;;;;;13.90;10.27;;;14.90;43.60;13.90;96593.00;;;;5023314;28;20189;-86
2022/03/04 09:47:38;;;;;;;13.47;10.17;;;15.10;42.80;14.00;96597.00;;;;5037196;28;20226;-86
2022/03/04 09:50:09;;;;;;;15.17;10.67;;;15.20;42.40;14.10;96594.00;;;;5048915;28;20193;-86
2022/03/04 09:52:37;;;;;;;15.50;10.30;;;15.30;41.30;14.20;96588.00;;;;5044629;28;20239;-85
2022/03/04 09:55:05;;;;;;;14.97;9.87;;;15.40;41.50;14.30;96580.00;;;;5035859;28;20193;-86
2022/03/04 09:57:32;;;;;;;13.13;10.40;;;15.30;41.10;14.40;96602.00;;;;5032614;28;20232;-87
2022/03/04 09:59:59;;;;;;;14.87;10.00;;;15.60;40.90;14.40;96591.00;;;;5027870;28;20648;-86
2022/03/04 10:02:26;;;;;;;13.27;9.47;;;15.10;41.00;14.50;96599.00;;;;5035263;28;20221;-86
2022/03/04 10:05:01;;;;;;;12.97;10.03;;;15.10;40.10;14.50;96595.00;;;;5036623;28;20194;-85
2022/03/04 10:07:41;;;;;;;13.67;9.80;;;15.00;40.00;14.50;96593.00;;;;5053405;28;20220;-86
2022/03/04 10:10:15;;;;;;;12.53;9.43;;;15.00;40.00;14.50;96593.00;;;;5049555;28;20203;-86
2022/03/04 10:12:53;;;;;;;13.43;9.43;;;15.10;40.50;14.50;96593.00;;;;5036686;28;20208;-87
2022/03/04 10:15:21;;;;;;;13.10;10.20;;;15.20;40.00;14.50;96595.00;;;;5040646;28;20197;-86
2022/03/04 10:18:01;;;;;;;12.77;9.80;;;15.40;40.00;14.50;96591.00;;;;5052669;28;20216;-86
2022/03/04 10:20:35;;;;;;;13.07;10.13;;;15.50;39.60;14.50;96592.00;;;;5045387;28;20659;-86
2022/03/04 10:23:19;;;;;;;12.17;9.77;;;15.60;39.30;14.50;96594.00;;;;5041794;28;20204;-86
2022/03/04 10:25:51;;;;;;;14.30;10.33;;;15.80;39.00;14.60;96595.00;;;;5038829;28;20197;-87
2022/03/04 10:28:20;;;;;;;13.90;10.17;;;15.90;38.90;14.60;96582.00;;;;5030247;28;20197;-86
2022/03/04 10:30:50;;;;;;;17.70;11.23;;;16.10;37.50;14.60;96589.00;;;;5034530;28;20213;-86
2022/03/04 10:33:20;;;;;;;14.43;10.80;;;16.00;37.80;14.60;96595.00;;;;5050414;28;20280;-87
2022/03/04 10:36:05;;;;;;;17.37;10.83;;;16.00;36.70;14.60;96594.00;;;;5049470;28;20371;-87
2022/03/04 10:38:35;;;;;;;13.47;9.67;;;16.10;37.70;14.70;96592.00;;;;5048187;28;20208;-87
2022/03/04 10:41:20;;;;;;;13.13;9.50;;;16.10;37.30;14.70;96604.00;;;;5034361;28;20252;-86
2022/03/04 10:43:47;;;;;;;17.77;10.53;;;16.10;37.70;14.70;96592.00;;;;5030661;28;20686;-86
2022/03/04 10:46:14;;;;;;;13.00;9.77;;;16.70;37.10;14.80;96594.00;;;;5042934;28;20229;-86
2022/03/04 10:48:53;;;;;;;15.20;10.37;;;16.20;37.30;14.90;96595.00;;;;5040172;28;20567;-86
2022/03/04 10:51:36;;;;;;;14.10;9.40;;;16.30;37.10;14.90;96590.00;;;;5038805;28;20221;-86
2022/03/04 10:54:16;;;;;;;13.23;9.70;;;16.80;37.50;15.00;96591.00;;;;5036945;28;20690;-86
2022/03/04 10:56:52;;;;;;;13.17;9.83;;;16.40;36.10;15.00;96583.00;;;;5040684;28;20204;-85
2022/03/04 10:59:20;;;;;;;14.77;10.30;;;16.30;36.20;14.90;96580.00;;;;5031428;28;20189;-86
2022/03/04 11:01:49;;;;;;;13.20;10.00;;;16.10;36.30;14.90;96573.00;;;;5038559;28;20221;-84
2022/03/04 11:04:19;;;;;;;14.90;10.73;;;16.00;36.20;14.90;96580.00;;;;5028817;28;20661;-86